Time;durP1;ratioP1;P1;durP2;ratioP2;P2;SDS_P1;SDS_P2;PMS_P1;PMS_P2;Temp;Humidity;BMP_temperature;BMP_pressure;BME280_temperature;BME280_humidity;BME280_pressure;Samples;Min_cycle;Max_cycle;Signal;HPM_P1;HPM_P2
2023/05/03 00:00:42;;;;;;;8.30;2.47;;;6.50;99.90;;;;;;4998337;28;20094;-77
2023/05/03 00:03:08;;;;;;;11.70;2.78;;;6.40;99.90;;;;;;4994582;28;20054;-77
2023/05/03 00:05:33;;;;;;;8.88;3.13;;;6.40;99.90;;;;;;5002936;28;20054;-77
2023/05/03 00:07:59;;;;;;;10.20;3.03;;;6.30;99.90;;;;;;4998726;28;20062;-77
2023/05/03 00:10:25;;;;;;;10.40;2.88;;;6.30;99.90;;;;;;5003596;28;20046;-78
2023/05/03 00:12:51;;;;;;;10.40;2.95;;;6.20;99.90;;;;;;4978256;28;20038;-78
2023/05/03 00:15:16;;;;;;;11.77;3.22;;;6.20;99.90;;;;;;4998568;28;20450;-78
2023/05/03 00:17:42;;;;;;;11.90;2.58;;;6.10;99.90;;;;;;4988460;28;20813;-78
2023/05/03 00:20:08;;;;;;;10.88;2.55;;;6.10;99.90;;;;;;5003023;28;20038;-78
2023/05/03 00:22:35;;;;;;;10.05;2.80;;;6.10;99.90;;;;;;5004389;28;20084;-78
2023/05/03 00:25:01;;;;;;;8.63;2.88;;;6.10;99.90;;;;;;5006639;28;20064;-78
2023/05/03 00:27:27;;;;;;;8.48;2.97;;;6.00;99.90;;;;;;5000792;28;20095;-78
2023/05/03 00:29:53;;;;;;;11.10;2.55;;;6.00;99.90;;;;;;5004544;28;20611;-78
2023/05/03 00:32:21;;;;;;;11.38;2.92;;;6.00;99.90;;;;;;5008231;28;20128;-76
2023/05/03 00:34:55;;;;;;;8.30;2.72;;;6.00;99.90;;;;;;5008431;28;20041;-77
2023/05/03 00:37:21;;;;;;;9.32;2.63;;;6.00;99.90;;;;;;5002456;28;20054;-78
2023/05/03 00:39:47;;;;;;;12.10;3.13;;;6.00;99.90;;;;;;5008393;28;20092;-77
2023/05/03 00:42:12;;;;;;;9.25;3.03;;;6.10;99.90;;;;;;5000331;28;20065;-77
2023/05/03 00:44:38;;;;;;;6.57;2.28;;;6.10;99.90;;;;;;4992208;28;20065;-77
2023/05/03 00:47:04;;;;;;;11.50;2.67;;;6.10;99.90;;;;;;4972468;28;20046;-77
2023/05/03 00:49:30;;;;;;;8.05;2.42;;;6.10;99.90;;;;;;4980171;28;20077;-79
2023/05/03 00:51:58;;;;;;;5.55;2.45;;;6.50;99.90;;;;;;5008082;28;20136;-79
2023/05/03 00:54:26;;;;;;;10.68;2.28;;;6.10;99.90;;;;;;5007935;28;20046;-79
2023/05/03 00:56:52;;;;;;;5.55;2.38;;;6.60;99.90;;;;;;4999349;28;20042;-77
2023/05/03 00:59:18;;;;;;;9.43;2.53;;;6.10;99.90;;;;;;5003418;28;20124;-77
2023/05/03 01:01:48;;;;;;;8.50;2.05;;;6.10;99.90;;;;;;4989792;28;20104;-78
2023/05/03 01:04:14;;;;;;;6.75;2.28;;;6.20;99.90;;;;;;4990558;28;20720;-77
2023/05/03 01:06:50;;;;;;;6.53;2.05;;;6.20;99.90;;;;;;4991419;28;20069;-78
2023/05/03 01:09:30;;;;;;;7.10;2.17;;;6.20;99.90;;;;;;4987253;28;20137;-78
2023/05/03 01:12:11;;;;;;;7.18;2.15;;;6.20;99.90;;;;;;4971569;28;20046;-78
2023/05/03 01:14:45;;;;;;;6.43;2.50;;;6.20;99.90;;;;;;4989949;28;20058;-77
2023/05/03 01:17:12;;;;;;;9.10;2.10;;;6.20;99.90;;;;;;5006263;28;20041;-78
2023/05/03 01:19:50;;;;;;;13.27;2.90;;;6.60;99.90;;;;;;5007159;28;20087;-78
2023/05/03 01:22:45;;;;;;;9.80;2.40;;;6.40;99.90;;;;;;4988984;28;20403;-78
2023/05/03 01:25:12;;;;;;;9.70;2.60;;;6.20;99.90;;;;;;5006352;28;20057;-77
2023/05/03 01:27:40;;;;;;;7.00;2.40;;;6.20;99.90;;;;;;4995398;28;20073;-77
2023/05/03 01:30:10;;;;;;;8.73;2.53;;;6.20;99.90;;;;;;4994624;28;20046;-78
2023/05/03 01:32:45;;;;;;;6.32;2.22;;;6.20;99.90;;;;;;5005717;28;20042;-77
2023/05/03 01:35:22;;;;;;;10.45;2.30;;;6.20;99.90;;;;;;4989655;28;20732;-77
2023/05/03 01:37:49;;;;;;;6.70;2.30;;;6.20;99.90;;;;;;4984608;28;20054;-77
2023/05/03 01:40:18;;;;;;;11.90;2.60;;;6.70;99.90;;;;;;4972986;28;20380;-77
2023/05/03 01:42:46;;;;;;;10.05;2.70;;;6.20;99.90;;;;;;4989216;28;20581;-77
2023/05/03 01:45:12;;;;;;;7.90;2.50;;;6.20;99.90;;;;;;5005964;28;20100;-78
2023/05/03 01:47:38;;;;;;;7.10;2.30;;;6.20;99.90;;;;;;4989993;28;20065;-78
2023/05/03 01:50:03;;;;;;;11.63;2.55;;;6.20;99.90;;;;;;4989730;28;20041;-77
2023/05/03 01:52:29;;;;;;;6.00;2.17;;;6.10;99.90;;;;;;4986964;28;20060;-77
2023/05/03 01:54:55;;;;;;;8.32;2.30;;;6.10;99.90;;;;;;5004773;28;20116;-77
2023/05/03 01:57:21;;;;;;;9.50;2.42;;;6.20;99.90;;;;;;5003585;28;20113;-78
2023/05/03 01:59:47;;;;;;;6.57;2.30;;;6.10;99.90;;;;;;5005758;28;20084;-77
2023/05/03 02:02:13;;;;;;;6.80;2.30;;;6.20;99.90;;;;;;4983007;28;20145;-77
2023/05/03 02:04:39;;;;;;;8.35;2.70;;;6.10;99.90;;;;;;5000863;28;20470;-77
2023/05/03 02:07:05;;;;;;;6.47;2.03;;;6.10;99.90;;;;;;4990182;28;20450;-77
2023/05/03 02:09:30;;;;;;;4.20;1.95;;;6.10;99.90;;;;;;5006499;28;20593;-77
2023/05/03 02:11:56;;;;;;;6.63;2.20;;;6.10;99.90;;;;;;5006023;28;20487;-76
2023/05/03 02:14:22;;;;;;;6.00;2.20;;;6.20;99.90;;;;;;5007287;28;20108;-77
2023/05/03 02:16:48;;;;;;;5.80;2.05;;;6.20;99.90;;;;;;5006725;28;20120;-77
2023/05/03 02:19:14;;;;;;;9.15;2.25;;;6.10;99.90;;;;;;5005638;28;20629;-77
2023/05/03 02:21:40;;;;;;;6.28;2.28;;;6.10;99.90;;;;;;5006033;28;20042;-76
2023/05/03 02:24:05;;;;;;;7.45;2.03;;;6.10;99.90;;;;;;4990262;28;20120;-76
2023/05/03 02:26:31;;;;;;;8.10;2.20;;;6.20;99.90;;;;;;5004992;28;20139;-76
2023/05/03 02:28:57;;;;;;;6.75;2.35;;;6.20;99.90;;;;;;5006509;28;20124;-76
2023/05/03 02:31:24;;;;;;;6.88;2.40;;;6.20;99.90;;;;;;4983322;28;20037;-76
2023/05/03 02:33:50;;;;;;;8.45;2.58;;;6.10;99.90;;;;;;4978713;28;20054;-76
2023/05/03 02:36:16;;;;;;;6.50;2.05;;;6.10;99.90;;;;;;5005389;28;20522;-76
2023/05/03 02:38:41;;;;;;;9.20;2.70;;;6.20;99.90;;;;;;5000083;28;20078;-75
2023/05/03 02:41:07;;;;;;;9.52;2.20;;;6.20;99.90;;;;;;4994334;28;20499;-77
2023/05/03 02:43:33;;;;;;;5.25;2.05;;;6.90;99.90;;;;;;5003892;28;20057;-76
2023/05/03 02:45:58;;;;;;;9.15;2.13;;;6.20;99.90;;;;;;5006476;28;20053;-76
2023/05/03 02:48:24;;;;;;;7.70;2.55;;;6.40;99.90;;;;;;4988636;28;20053;-76
2023/05/03 02:50:50;;;;;;;5.70;1.90;;;6.20;99.90;;;;;;5005980;28;20585;-77
2023/05/03 02:53:15;;;;;;;6.45;2.03;;;6.20;99.90;;;;;;4988424;28;20103;-77
2023/05/03 02:55:42;;;;;;;6.32;2.20;;;6.70;99.90;;;;;;5003701;28;20052;-77
2023/05/03 02:58:08;;;;;;;6.35;2.08;;;6.20;99.90;;;;;;5001887;28;20621;-77
2023/05/03 03:00:34;;;;;;;4.63;1.77;;;6.20;99.90;;;;;;5003764;28;20179;-76
2023/05/03 03:03:00;;;;;;;6.25;2.10;;;6.20;99.90;;;;;;5003498;28;20143;-76
2023/05/03 03:05:26;;;;;;;7.38;2.25;;;6.20;99.90;;;;;;5005133;28;20664;-78
2023/05/03 03:07:51;;;;;;;8.32;2.30;;;6.20;99.90;;;;;;5005519;28;20478;-77
2023/05/03 03:10:17;;;;;;;6.05;2.20;;;6.20;99.90;;;;;;4997020;28;20348;-77
2023/05/03 03:12:43;;;;;;;4.60;2.20;;;6.20;99.90;;;;;;4993857;28;20399;-77
2023/05/03 03:15:09;;;;;;;6.28;2.15;;;6.20;99.90;;;;;;5003205;28;20131;-77
2023/05/03 03:17:38;;;;;;;6.15;2.35;;;6.20;99.90;;;;;;4988905;28;20097;-77
2023/05/03 03:20:11;;;;;;;6.00;2.25;;;6.20;99.90;;;;;;4988193;28;20050;-78
2023/05/03 03:22:39;;;;;;;7.00;2.50;;;6.20;99.90;;;;;;5004086;28;20136;-78
2023/05/03 03:25:06;;;;;;;5.07;2.20;;;6.50;99.90;;;;;;4988047;28;20042;-78
2023/05/03 03:27:32;;;;;;;7.13;2.90;;;6.20;99.90;;;;;;5001083;28;20057;-77
2023/05/03 03:29:58;;;;;;;7.40;2.38;;;6.20;99.90;;;;;;5000320;28;20529;-76
2023/05/03 03:32:24;;;;;;;6.63;2.30;;;6.20;99.90;;;;;;5004736;28;20057;-77
2023/05/03 03:34:50;;;;;;;4.57;2.47;;;6.70;99.90;;;;;;5003841;28;20049;-77
2023/05/03 03:37:16;;;;;;;7.80;2.30;;;6.20;99.90;;;;;;5004095;28;20414;-78
2023/05/03 03:39:42;;;;;;;5.05;2.08;;;6.10;99.90;;;;;;5005142;28;20107;-78
2023/05/03 03:42:10;;;;;;;5.60;2.17;;;6.30;99.90;;;;;;4996225;28;20553;-78
2023/05/03 03:44:36;;;;;;;8.10;2.38;;;6.80;99.90;;;;;;4998255;28;20103;-77
2023/05/03 03:47:01;;;;;;;7.80;2.30;;;6.10;99.90;;;;;;5004566;28;20809;-78
2023/05/03 03:49:27;;;;;;;9.70;2.55;;;6.30;99.90;;;;;;5004179;28;20056;-77
2023/05/03 03:51:52;;;;;;;10.50;2.30;;;6.10;99.90;;;;;;4987972;28;20411;-78
2023/05/03 03:54:18;;;;;;;5.35;2.28;;;6.10;99.90;;;;;;5006000;28;20141;-77
2023/05/03 03:56:44;;;;;;;7.97;2.80;;;6.60;99.90;;;;;;4987547;28;20058;-77
2023/05/03 03:59:09;;;;;;;5.03;2.03;;;6.00;99.90;;;;;;4994816;28;20475;-77
2023/05/03 04:01:35;;;;;;;5.70;2.00;;;6.10;99.90;;;;;;4984956;28;20042;-77
2023/05/03 04:04:01;;;;;;;6.05;2.10;;;6.00;99.90;;;;;;4998585;28;20046;-77
2023/05/03 04:06:28;;;;;;;7.30;1.90;;;6.00;99.90;;;;;;4985957;28;20065;-78
2023/05/03 04:08:54;;;;;;;7.40;2.38;;;6.10;99.90;;;;;;5007705;28;20046;-77
2023/05/03 04:11:22;;;;;;;7.00;2.40;;;6.00;99.90;;;;;;5002368;28;20228;-77
2023/05/03 04:13:48;;;;;;;6.68;2.35;;;6.00;99.90;;;;;;5007676;28;20061;-77
2023/05/03 04:16:14;;;;;;;7.85;2.30;;;6.00;99.90;;;;;;5009613;28;20045;-77
2023/05/03 04:18:41;;;;;;;7.13;2.10;;;6.00;99.90;;;;;;5008956;28;20046;-77
2023/05/03 04:21:07;;;;;;;4.85;1.73;;;6.60;99.90;;;;;;5009459;28;20041;-77
2023/05/03 04:23:32;;;;;;;4.75;2.10;;;6.50;99.90;;;;;;5008805;28;20057;-76
2023/05/03 04:25:58;;;;;;;6.63;2.10;;;5.90;99.90;;;;;;4991852;28;20625;-77
2023/05/03 04:28:25;;;;;;;7.78;2.28;;;5.90;99.90;;;;;;4997569;28;20121;-77
2023/05/03 04:30:52;;;;;;;8.88;2.22;;;6.40;99.90;;;;;;5003366;28;20574;-76
2023/05/03 04:33:19;;;;;;;6.18;2.70;;;5.90;99.90;;;;;;4993344;28;20045;-77
2023/05/03 04:35:49;;;;;;;5.35;2.15;;;5.90;99.90;;;;;;4993110;28;20046;-76
2023/05/03 04:38:16;;;;;;;7.72;2.28;;;6.00;99.90;;;;;;5004020;28;20041;-77
2023/05/03 04:40:42;;;;;;;4.72;2.28;;;6.00;99.90;;;;;;5005387;28;20049;-77
2023/05/03 04:43:07;;;;;;;6.65;2.10;;;6.00;99.90;;;;;;4980613;28;20104;-76
2023/05/03 04:45:34;;;;;;;7.03;1.98;;;6.00;99.90;;;;;;4977285;28;20146;-77
2023/05/03 04:48:00;;;;;;;5.38;2.05;;;6.00;99.90;;;;;;5002039;28;20506;-78
2023/05/03 04:50:26;;;;;;;7.97;2.25;;;6.00;99.90;;;;;;5006976;28;20129;-77
2023/05/03 04:52:51;;;;;;;4.75;1.80;;;6.00;99.90;;;;;;5009207;28;20052;-78
2023/05/03 04:55:17;;;;;;;6.15;1.83;;;6.00;99.90;;;;;;5007144;28;20547;-78
2023/05/03 04:57:43;;;;;;;5.03;1.98;;;6.00;99.90;;;;;;5004832;28;20136;-77
2023/05/03 05:00:12;;;;;;;4.55;1.88;;;6.00;99.90;;;;;;4977968;28;20072;-77
2023/05/03 05:02:38;;;;;;;4.78;1.90;;;6.00;99.90;;;;;;5006635;28;20131;-77
2023/05/03 05:05:04;;;;;;;9.52;2.25;;;6.00;99.90;;;;;;5005790;28;20054;-77
2023/05/03 05:07:30;;;;;;;9.00;2.53;;;6.10;99.90;;;;;;5007425;28;20046;-77
2023/05/03 05:09:55;;;;;;;4.85;1.98;;;6.10;99.90;;;;;;5007359;28;20045;-77
2023/05/03 05:12:21;;;;;;;9.00;1.95;;;6.10;99.90;;;;;;5007238;28;20056;-77
2023/05/03 05:14:46;;;;;;;6.35;2.10;;;6.10;99.90;;;;;;5004626;28;20422;-77
2023/05/03 05:17:12;;;;;;;10.38;3.30;;;6.10;99.90;;;;;;5008339;28;20565;-77
2023/05/03 05:19:38;;;;;;;7.90;1.60;;;6.10;99.90;;;;;;5007065;28;20046;-77
2023/05/03 05:22:04;;;;;;;5.30;1.60;;;6.60;99.90;;;;;;5005218;28;20049;-77
2023/05/03 05:24:29;;;;;;;6.80;1.77;;;6.20;99.90;;;;;;5001335;28;20052;-78
2023/05/03 05:26:55;;;;;;;3.92;1.60;;;6.20;99.90;;;;;;5005209;28;20496;-77
2023/05/03 05:29:21;;;;;;;4.35;1.65;;;6.20;99.90;;;;;;4998304;28;20125;-77
2023/05/03 05:31:46;;;;;;;5.40;1.80;;;6.20;99.90;;;;;;5007315;28;20042;-78
2023/05/03 05:34:12;;;;;;;7.13;1.90;;;6.30;99.90;;;;;;5001487;28;20046;-76
2023/05/03 05:36:38;;;;;;;5.30;1.35;;;6.30;99.90;;;;;;4977695;28;20058;-76
2023/05/03 05:39:04;;;;;;;3.88;1.50;;;6.30;99.90;;;;;;4972869;28;20112;-77
2023/05/03 05:41:29;;;;;;;4.85;1.60;;;6.30;99.90;;;;;;4993940;28;20141;-76
2023/05/03 05:43:56;;;;;;;5.80;1.85;;;6.30;99.90;;;;;;4978540;28;20045;-77
2023/05/03 05:46:22;;;;;;;5.03;1.60;;;6.40;99.90;;;;;;5000351;28;20042;-77
2023/05/03 05:48:50;;;;;;;10.02;1.48;;;6.40;99.90;;;;;;5004676;28;20072;-77
2023/05/03 05:51:16;;;;;;;5.80;1.55;;;6.40;99.90;;;;;;5005307;28;20053;-77
2023/05/03 05:53:42;;;;;;;5.43;1.30;;;6.50;99.90;;;;;;5006336;28;20038;-78
2023/05/03 05:56:07;;;;;;;5.13;1.42;;;6.50;99.90;;;;;;4990983;28;20048;-78
2023/05/03 05:58:36;;;;;;;6.00;1.50;;;6.50;99.90;;;;;;5000260;28;20046;-77
2023/05/03 06:01:02;;;;;;;5.97;1.50;;;6.60;99.90;;;;;;5007639;28;20049;-77
2023/05/03 06:03:28;;;;;;;7.63;1.77;;;6.60;99.90;;;;;;5006816;28;20147;-77
2023/05/03 06:05:54;;;;;;;6.22;1.60;;;6.60;99.90;;;;;;5006681;28;20045;-79
2023/05/03 06:08:20;;;;;;;7.32;1.55;;;6.70;99.90;;;;;;4986252;28;20042;-78
2023/05/03 06:10:46;;;;;;;4.22;1.30;;;7.30;99.90;;;;;;5005048;28;20068;-77
2023/05/03 06:13:11;;;;;;;3.08;1.00;;;6.70;99.90;;;;;;5005085;28;20503;-77
2023/05/03 06:15:37;;;;;;;7.75;1.45;;;7.30;99.90;;;;;;5004781;28;20046;-77
2023/05/03 06:18:03;;;;;;;9.65;1.42;;;6.70;99.90;;;;;;5004624;28;20046;-77
2023/05/03 06:20:29;;;;;;;6.03;1.13;;;6.80;99.90;;;;;;4988455;28;20065;-77
2023/05/03 06:22:54;;;;;;;3.53;1.13;;;6.80;99.90;;;;;;4988508;28;20582;-77
2023/05/03 06:25:20;;;;;;;3.42;1.02;;;6.90;99.90;;;;;;5004173;28;20049;-78
2023/05/03 06:27:46;;;;;;;7.05;1.40;;;6.90;99.90;;;;;;4988095;28;20054;-78
2023/05/03 06:30:12;;;;;;;5.53;1.02;;;7.50;99.90;;;;;;4990323;28;20046;-79
2023/05/03 06:32:39;;;;;;;5.10;1.00;;;6.90;99.90;;;;;;5003032;28;20140;-79
2023/05/03 06:35:06;;;;;;;5.97;1.10;;;7.00;99.90;;;;;;5005755;28;20108;-79
2023/05/03 06:37:31;;;;;;;4.60;1.10;;;7.00;99.90;;;;;;4999984;28;20129;-79
2023/05/03 06:39:57;;;;;;;7.80;1.48;;;7.10;99.90;;;;;;5006216;28;20481;-79
2023/05/03 06:42:23;;;;;;;5.43;1.00;;;7.20;99.90;;;;;;5005328;28;20356;-78
2023/05/03 06:44:48;;;;;;;7.75;1.35;;;7.70;99.90;;;;;;4988773;28;20046;-79
2023/05/03 06:47:14;;;;;;;6.30;1.23;;;7.20;99.90;;;;;;5006201;28;20380;-79
2023/05/03 06:49:40;;;;;;;6.75;1.30;;;7.30;99.90;;;;;;5000663;28;20042;-79
2023/05/03 06:52:06;;;;;;;6.82;1.13;;;7.30;99.90;;;;;;5004849;28;20151;-79
2023/05/03 06:54:31;;;;;;;5.00;1.17;;;7.40;99.90;;;;;;4986333;28;20052;-79
2023/05/03 06:56:57;;;;;;;5.97;1.13;;;7.50;99.90;;;;;;5003613;28;20049;-79
2023/05/03 06:59:23;;;;;;;8.23;1.30;;;7.50;99.90;;;;;;4985443;28;20061;-79
2023/05/03 07:01:50;;;;;;;4.70;0.90;;;7.80;99.90;;;;;;4985533;28;20042;-79
2023/05/03 07:04:15;;;;;;;7.78;1.05;;;7.60;99.90;;;;;;4986361;28;20054;-79
2023/05/03 07:06:41;;;;;;;4.68;1.02;;;7.60;99.90;;;;;;4999586;28;20052;-79
2023/05/03 07:09:07;;;;;;;2.83;0.90;;;7.70;99.90;;;;;;4983854;28;20125;-78
2023/05/03 07:11:36;;;;;;;6.40;1.10;;;7.70;99.90;;;;;;4998877;28;20050;-79
2023/05/03 07:14:01;;;;;;;3.88;0.90;;;8.30;99.90;;;;;;5003033;28;20115;-79
2023/05/03 07:16:28;;;;;;;3.67;0.93;;;7.80;99.90;;;;;;5003538;28;20045;-79
2023/05/03 07:18:53;;;;;;;7.85;1.20;;;7.90;99.90;;;;;;5005205;28;20120;-79
2023/05/03 07:21:19;;;;;;;3.03;0.90;;;7.80;99.90;;;;;;4979169;28;20482;-80
2023/05/03 07:23:45;;;;;;;3.80;0.95;;;7.80;99.90;;;;;;5000168;28;20053;-80
2023/05/03 07:26:11;;;;;;;6.80;1.15;;;7.90;99.90;;;;;;5005049;28;20042;-80
2023/05/03 07:28:36;;;;;;;5.20;1.10;;;8.00;99.90;;;;;;5003965;28;20111;-79
2023/05/03 07:31:03;;;;;;;3.78;0.82;;;8.00;99.90;;;;;;5005835;28;20038;-80
2023/05/03 07:33:30;;;;;;;3.50;1.00;;;8.00;99.90;;;;;;4989490;28;20111;-80
2023/05/03 07:35:55;;;;;;;5.50;0.75;;;8.10;99.90;;;;;;5003977;28;20048;-80
2023/05/03 07:38:21;;;;;;;3.70;0.75;;;8.10;99.90;;;;;;5001948;28;20117;-79
2023/05/03 07:40:47;;;;;;;4.78;0.95;;;8.10;99.90;;;;;;5005810;28;20042;-80
2023/05/03 07:43:15;;;;;;;3.35;0.90;;;8.10;99.90;;;;;;5005261;28;20419;-81
2023/05/03 07:45:41;;;;;;;4.45;0.93;;;8.10;99.90;;;;;;4988621;28;20050;-80
2023/05/03 07:48:06;;;;;;;6.65;0.82;;;8.20;99.90;;;;;;5000764;28;20104;-79
2023/05/03 07:50:32;;;;;;;8.73;0.93;;;8.20;99.90;;;;;;4993909;28;20498;-79
2023/05/03 07:52:58;;;;;;;5.90;0.80;;;8.70;99.90;;;;;;4979787;28;20053;-79
2023/05/03 07:55:24;;;;;;;3.17;0.85;;;8.30;99.90;;;;;;4989592;28;20046;-79
2023/05/03 07:57:51;;;;;;;3.90;0.98;;;8.30;99.90;;;;;;5003959;28;20049;-79
2023/05/03 08:00:16;;;;;;;5.90;1.20;;;8.30;99.90;;;;;;4988620;28;20058;-79
2023/05/03 08:02:42;;;;;;;5.90;1.10;;;8.40;99.90;;;;;;4994844;28;20053;-79
2023/05/03 08:05:10;;;;;;;3.22;0.70;;;8.50;99.90;;;;;;4986253;28;20057;-79
2023/05/03 08:07:35;;;;;;;5.95;1.02;;;8.50;99.90;;;;;;5003155;28;20473;-79
2023/05/03 08:10:01;;;;;;;3.72;0.93;;;8.50;99.90;;;;;;5005701;28;20068;-79
2023/05/03 08:12:27;;;;;;;5.43;1.02;;;8.60;99.90;;;;;;4985167;28;20049;-80
2023/05/03 08:14:54;;;;;;;6.15;1.00;;;8.60;99.90;;;;;;5003748;28;20053;-81
2023/05/03 08:17:21;;;;;;;4.18;0.90;;;8.60;99.90;;;;;;4994632;28;20046;-81
2023/05/03 08:19:47;;;;;;;7.13;1.00;;;8.60;99.90;;;;;;5000514;28;20491;-80
2023/05/03 08:22:13;;;;;;;6.00;1.30;;;8.60;99.90;;;;;;4998378;28;20052;-81
2023/05/03 08:24:39;;;;;;;3.20;1.20;;;9.10;99.90;;;;;;4989837;28;20546;-81
2023/05/03 08:27:06;;;;;;;3.75;0.90;;;8.60;99.90;;;;;;5003652;28;20073;-81
2023/05/03 08:29:32;;;;;;;5.78;1.10;;;8.60;99.90;;;;;;4987471;28;20057;-81
2023/05/03 08:31:58;;;;;;;2.30;0.80;;;8.60;99.90;;;;;;5003152;28;20042;-81
2023/05/03 08:34:24;;;;;;;3.90;0.90;;;8.70;99.90;;;;;;4983757;28;20111;-81
2023/05/03 08:36:50;;;;;;;6.03;0.90;;;8.70;99.90;;;;;;5003281;28;20065;-81
2023/05/03 08:39:17;;;;;;;2.83;0.98;;;8.70;99.90;;;;;;4986848;28;20145;-81
2023/05/03 08:41:43;;;;;;;5.07;1.10;;;8.70;99.90;;;;;;4997796;28;20048;-81
2023/05/03 08:44:11;;;;;;;5.78;1.00;;;8.70;99.90;;;;;;4982488;28;20058;-81
2023/05/03 08:46:37;;;;;;;5.53;0.80;;;8.80;99.90;;;;;;4988347;28;20042;-81
2023/05/03 08:49:06;;;;;;;2.42;0.82;;;8.80;99.90;;;;;;5005323;28;20041;-81
2023/05/03 08:51:34;;;;;;;6.05;1.02;;;8.80;99.90;;;;;;5006628;28;20049;-81
2023/05/03 08:53:59;;;;;;;7.60;1.15;;;8.80;99.90;;;;;;5005039;28;20514;-81
2023/05/03 08:56:32;;;;;;;4.50;0.90;;;8.80;99.90;;;;;;5006221;28;20045;-81
2023/05/03 08:59:06;;;;;;;7.72;1.42;;;8.90;99.90;;;;;;4990459;28;20049;-80
2023/05/03 09:01:33;;;;;;;5.88;0.90;;;8.90;99.90;;;;;;5002880;28;20078;-81
2023/05/03 09:03:58;;;;;;;4.82;1.08;;;8.90;99.90;;;;;;5006615;28;20526;-81
2023/05/03 09:06:25;;;;;;;3.92;0.80;;;8.90;99.90;;;;;;4992467;28;20129;-79
2023/05/03 09:08:51;;;;;;;3.95;1.20;;;8.90;99.90;;;;;;5006771;28;20049;-80
2023/05/03 09:11:22;;;;;;;5.47;1.00;;;9.00;99.90;;;;;;5005518;28;20046;-82
2023/05/03 09:13:48;;;;;;;5.45;1.00;;;9.00;99.90;;;;;;5002893;28;20470;-79
2023/05/03 09:16:23;;;;;;;5.03;0.85;;;9.00;99.90;;;;;;5005109;28;20695;-80
2023/05/03 09:18:59;;;;;;;5.10;1.30;;;9.00;99.90;;;;;;4996577;28;20061;-81
2023/05/03 09:21:25;;;;;;;4.43;1.00;;;9.00;99.90;;;;;;5006088;28;20042;-79
2023/05/03 09:23:51;;;;;;;5.45;1.30;;;9.10;99.90;;;;;;5000624;28;20133;-79
2023/05/03 09:26:30;;;;;;;4.63;0.90;;;9.30;99.90;;;;;;5007559;28;20042;-79
2023/05/03 09:29:00;;;;;;;5.40;1.30;;;9.10;99.90;;;;;;4978645;28;20050;-81
2023/05/03 09:31:31;;;;;;;10.10;1.27;;;9.50;99.90;;;;;;5006625;28;20041;-78
2023/05/03 09:33:57;;;;;;;2.50;0.88;;;9.20;99.90;;;;;;4989705;28;20045;-78
2023/05/03 09:36:24;;;;;;;3.92;1.08;;;9.20;99.90;;;;;;4989920;28;20034;-78
2023/05/03 09:38:51;;;;;;;7.32;1.20;;;9.20;99.90;;;;;;5005399;28;20129;-78
2023/05/03 09:41:27;;;;;;;4.43;1.00;;;9.20;99.90;;;;;;4991222;28;20049;-81
2023/05/03 09:43:55;;;;;;;5.97;0.80;;;9.20;99.90;;;;;;5004962;28;20064;-78
2023/05/03 09:46:23;;;;;;;6.35;1.10;;;9.20;99.90;;;;;;4972548;28;20129;-79
2023/05/03 09:48:54;;;;;;;9.02;1.50;;;9.70;99.90;;;;;;4987323;28;20134;-80
2023/05/03 09:51:24;;;;;;;4.70;1.00;;;9.30;99.90;;;;;;4971342;28;20046;-77
2023/05/03 09:53:51;;;;;;;5.28;1.10;;;9.30;99.90;;;;;;4997005;28;20128;-76
2023/05/03 09:56:19;;;;;;;4.95;1.00;;;9.30;99.90;;;;;;5005764;28;20461;-80
2023/05/03 09:58:46;;;;;;;5.90;1.30;;;9.40;99.90;;;;;;4990142;28;20050;-79
2023/05/03 10:01:15;;;;;;;7.95;1.13;;;9.40;99.90;;;;;;5001312;28;20050;-78
2023/05/03 10:03:42;;;;;;;6.93;1.33;;;9.40;99.90;;;;;;4970952;28;20054;-80
2023/05/03 10:06:48;;;;;;;3.70;1.15;;;9.50;99.90;;;;;;4992751;28;20383;-78
2023/05/03 10:09:25;;;;;;;5.72;1.00;;;9.50;99.90;;;;;;4954836;28;20120;-80
2023/05/03 10:11:53;;;;;;;4.63;1.02;;;9.50;99.90;;;;;;4963894;28;20046;-82
2023/05/03 10:14:23;;;;;;;6.03;1.00;;;9.60;99.90;;;;;;4979212;28;20111;-79
2023/05/03 10:16:52;;;;;;;2.75;0.95;;;9.50;99.90;;;;;;5000075;28;20050;-81
2023/05/03 10:19:46;;;;;;;6.32;1.35;;;9.60;99.90;;;;;;4998769;28;20054;-80
2023/05/03 10:22:12;;;;;;;3.85;1.45;;;9.60;99.90;;;;;;5001297;28;20061;-78
2023/05/03 10:25:01;;;;;;;4.55;1.30;;;9.70;99.90;;;;;;4989388;28;20050;-79
2023/05/03 10:27:45;;;;;;;4.35;1.23;;;9.70;99.90;;;;;;5004489;28;20038;-80
2023/05/03 10:30:30;;;;;;;3.35;1.25;;;9.80;99.90;;;;;;4990162;28;20042;-78
2023/05/03 10:32:56;;;;;;;4.32;1.00;;;9.80;99.90;;;;;;5003051;28;20054;-79
2023/05/03 10:35:26;;;;;;;4.10;1.20;;;9.90;99.90;;;;;;4978496;28;20514;-79
2023/05/03 10:37:53;;;;;;;4.50;1.20;;;9.90;99.90;;;;;;5003229;28;20117;-78
2023/05/03 10:40:20;;;;;;;6.13;1.20;;;9.90;99.90;;;;;;4985615;28;20046;-79
2023/05/03 10:42:51;;;;;;;8.68;1.50;;;10.00;99.90;;;;;;4998362;28;20046;-80
2023/05/03 10:45:28;;;;;;;4.38;1.38;;;10.00;99.90;;;;;;5001347;28;20053;-79
2023/05/03 10:48:19;;;;;;;3.63;1.00;;;10.00;99.90;;;;;;4998566;28;20046;-77
2023/05/03 10:50:46;;;;;;;4.50;1.35;;;9.90;99.90;;;;;;5011106;28;20046;-79
2023/05/03 10:53:31;;;;;;;4.82;1.30;;;10.00;99.90;;;;;;4995603;28;20089;-79
2023/05/03 10:56:08;;;;;;;5.35;1.20;;;10.00;99.90;;;;;;4997706;28;20046;-80
2023/05/03 10:58:44;;;;;;;5.75;1.02;;;10.00;99.90;;;;;;4995576;28;20081;-79
2023/05/03 11:01:13;;;;;;;9.43;1.30;;;10.00;99.90;;;;;;5001932;28;20046;-77
2023/05/03 11:03:51;;;;;;;5.07;1.10;;;10.00;99.90;;;;;;4998572;28;20042;-79
2023/05/03 11:06:35;;;;;;;4.80;1.00;;;10.00;99.90;;;;;;5000220;28;20050;-78
2023/05/03 11:09:04;;;;;;;2.85;1.10;;;10.10;99.90;;;;;;4997776;28;20698;-78
2023/05/03 11:11:30;;;;;;;6.82;1.63;;;10.10;99.90;;;;;;4983443;28;20042;-78
2023/05/03 11:13:57;;;;;;;7.47;1.15;;;10.10;99.90;;;;;;4996108;28;20056;-79
2023/05/03 11:16:23;;;;;;;10.25;2.45;;;10.10;99.90;;;;;;5001240;28;20038;-80
2023/05/03 11:18:50;;;;;;;6.15;1.40;;;10.10;99.90;;;;;;5002107;28;20196;-78
2023/05/03 11:21:16;;;;;;;5.75;1.30;;;10.10;99.90;;;;;;5000794;28;20041;-77
2023/05/03 11:23:42;;;;;;;5.07;1.33;;;10.20;99.90;;;;;;4989227;28;20058;-79
2023/05/03 11:26:08;;;;;;;3.15;1.23;;;10.20;99.90;;;;;;5002526;28;20045;-80
2023/05/03 11:28:41;;;;;;;5.13;1.30;;;10.20;99.90;;;;;;4998781;28;20076;-78
2023/05/03 11:31:08;;;;;;;5.97;1.40;;;10.20;99.90;;;;;;5001447;28;20041;-78
2023/05/03 11:33:36;;;;;;;3.83;1.20;;;10.20;99.90;;;;;;4984244;28;20049;-81
2023/05/03 11:36:02;;;;;;;5.47;1.40;;;10.30;99.90;;;;;;4979838;28;20051;-81
2023/05/03 11:38:32;;;;;;;6.07;1.38;;;10.30;99.90;;;;;;4998154;28;20054;-81
2023/05/03 11:40:58;;;;;;;3.58;1.00;;;10.30;99.90;;;;;;4978322;28;20050;-80
2023/05/03 11:43:25;;;;;;;6.30;1.52;;;10.30;99.90;;;;;;4999407;28;20683;-81
2023/05/03 11:45:56;;;;;;;4.95;1.40;;;10.30;99.90;;;;;;4984796;28;20049;-76
2023/05/03 11:48:24;;;;;;;3.97;1.00;;;10.30;99.90;;;;;;4997404;28;20057;-80
2023/05/03 11:50:54;;;;;;;3.45;1.15;;;10.40;99.90;;;;;;4996414;28;20046;-79
2023/05/03 11:53:24;;;;;;;6.72;1.38;;;10.40;99.90;;;;;;4997084;28;20038;-79
2023/05/03 11:55:52;;;;;;;6.88;1.30;;;10.40;99.90;;;;;;5000760;28;20042;-77
2023/05/03 11:58:26;;;;;;;7.00;1.20;;;10.50;99.90;;;;;;4993941;28;20072;-79
2023/05/03 12:00:54;;;;;;;5.05;1.13;;;10.50;99.90;;;;;;4999207;28;20427;-79
2023/05/03 12:03:24;;;;;;;6.80;1.30;;;10.60;99.90;;;;;;4999874;28;20054;-79
2023/05/03 12:05:54;;;;;;;5.93;1.50;;;10.50;99.90;;;;;;4997774;28;20049;-79
2023/05/03 12:08:20;;;;;;;4.60;1.20;;;10.50;99.90;;;;;;4998074;28;20128;-77
2023/05/03 12:10:50;;;;;;;6.95;1.10;;;10.40;99.90;;;;;;4981785;28;20054;-79
2023/05/03 12:13:34;;;;;;;6.22;1.20;;;10.50;99.90;;;;;;4992378;28;20042;-78
2023/05/03 12:16:02;;;;;;;5.95;1.40;;;10.50;99.90;;;;;;4998420;28;20046;-78
2023/05/03 12:18:50;;;;;;;6.35;1.40;;;10.60;99.90;;;;;;4994941;28;20052;-75
2023/05/03 12:21:21;;;;;;;5.93;1.70;;;10.60;99.90;;;;;;4995978;28;20081;-77
2023/05/03 12:23:48;;;;;;;5.90;1.40;;;10.70;99.90;;;;;;4980397;28;20043;-76
2023/05/03 12:26:15;;;;;;;4.70;1.25;;;10.80;99.90;;;;;;4998015;28;20046;-79
2023/05/03 12:28:41;;;;;;;3.58;1.05;;;10.90;99.90;;;;;;5000504;28;20045;-76
2023/05/03 12:31:07;;;;;;;4.93;1.17;;;11.00;99.90;;;;;;4996456;28;20030;-78
2023/05/03 12:33:33;;;;;;;6.82;1.45;;;11.10;99.90;;;;;;5001004;28;20049;-76
2023/05/03 12:35:59;;;;;;;6.07;1.38;;;11.10;99.90;;;;;;4999056;28;20515;-78
2023/05/03 12:38:24;;;;;;;7.60;1.67;;;11.10;99.90;;;;;;4999881;28;20040;-76
2023/05/03 12:40:51;;;;;;;5.03;1.40;;;11.10;99.90;;;;;;4999171;28;20081;-81
2023/05/03 12:43:17;;;;;;;5.68;1.35;;;11.20;99.90;;;;;;4983161;28;20046;-79
2023/05/03 12:45:43;;;;;;;5.50;1.52;;;11.20;99.90;;;;;;4996525;28;20033;-80
2023/05/03 12:48:09;;;;;;;6.95;1.77;;;11.20;99.90;;;;;;4999959;28;20050;-80
2023/05/03 12:50:34;;;;;;;4.35;1.27;;;11.20;99.90;;;;;;4979064;28;20458;-80
2023/05/03 12:53:00;;;;;;;6.05;1.45;;;11.10;99.90;;;;;;4998410;28;20038;-81
2023/05/03 12:55:26;;;;;;;6.05;1.65;;;11.20;99.90;;;;;;5000026;28;20184;-80
2023/05/03 12:57:51;;;;;;;5.65;1.50;;;11.10;99.90;;;;;;4980937;28;20046;-78